Time;durP1;ratioP1;P1;durP2;ratioP2;P2;SDS_P1;SDS_P2;PMS_P1;PMS_P2;Temp;Humidity;BMP_temperature;BMP_pressure;BME280_temperature;BME280_humidity;BME280_pressure;Samples;Min_cycle;Max_cycle;Signal;HPM_P1;HPM_P2
2021/05/02 00:02:05;;;;;;;26.52;16.80;;;7.20;86.80;;;;;;5014717;28;20018;-81
2021/05/02 00:04:31;;;;;;;21.70;15.90;;;7.30;86.80;;;;;;5014423;28;20025;-82
2021/05/02 00:06:57;;;;;;;24.42;16.60;;;7.30;86.70;;;;;;5014554;28;20034;-81
2021/05/02 00:09:22;;;;;;;22.75;15.82;;;7.30;86.60;;;;;;5014139;28;20026;-81
2021/05/02 00:11:48;;;;;;;25.20;16.25;;;7.30;86.60;;;;;;5014278;28;20109;-81
2021/05/02 00:14:14;;;;;;;22.98;15.95;;;7.30;86.60;;;;;;5014118;28;20022;-81
2021/05/02 00:16:41;;;;;;;25.80;15.10;;;7.30;86.60;;;;;;5015063;28;20355;-81
2021/05/02 00:19:09;;;;;;;25.13;15.95;;;7.20;86.50;;;;;;5014188;28;20033;-81
2021/05/02 00:21:35;;;;;;;21.95;15.25;;;7.20;86.40;;;;;;5013963;28;20025;-79
2021/05/02 00:24:02;;;;;;;21.08;15.40;;;7.10;86.40;;;;;;5015169;28;20535;-80
2021/05/02 00:26:28;;;;;;;23.85;16.17;;;7.10;86.70;;;;;;5014863;28;20028;-81
2021/05/02 00:28:54;;;;;;;24.60;15.95;;;7.00;86.80;;;;;;5013746;28;20026;-79
2021/05/02 00:31:21;;;;;;;23.23;15.85;;;7.10;87.10;;;;;;5006377;28;20021;-79
2021/05/02 00:33:47;;;;;;;22.65;15.70;;;7.00;87.00;;;;;;4994508;28;20122;-81
2021/05/02 00:36:13;;;;;;;23.27;16.45;;;6.90;87.10;;;;;;4995485;28;20085;-81
2021/05/02 00:38:40;;;;;;;23.02;17.20;;;6.90;87.30;;;;;;4994062;28;20038;-80
2021/05/02 00:41:21;;;;;;;24.73;15.75;;;6.80;87.40;;;;;;4993768;28;20137;-81
2021/05/02 00:44:02;;;;;;;22.98;16.45;;;6.80;87.70;;;;;;4993974;28;20029;-81
2021/05/02 00:46:37;;;;;;;24.65;15.65;;;6.70;87.90;;;;;;4995226;28;20451;-81
2021/05/02 00:49:19;;;;;;;23.90;16.00;;;6.70;88.10;;;;;;4995433;28;20502;-81
2021/05/02 00:51:57;;;;;;;23.60;16.80;;;6.80;88.30;;;;;;4994171;28;20018;-82
2021/05/02 00:54:33;;;;;;;21.65;15.13;;;6.80;88.50;;;;;;4993798;28;20105;-80
2021/05/02 00:57:00;;;;;;;21.65;15.13;;;6.80;88.30;;;;;;4993935;28;20022;-81
2021/05/02 00:59:45;;;;;;;26.70;15.57;;;6.80;88.40;;;;;;4994083;28;20026;-81
2021/05/02 01:02:13;;;;;;;23.58;14.98;;;6.90;88.20;;;;;;4993717;28;20018;-81
2021/05/02 01:04:42;;;;;;;24.27;15.02;;;6.90;88.10;;;;;;4993894;28;20023;-81
2021/05/02 01:07:15;;;;;;;18.55;12.73;;;6.90;88.00;;;;;;4993907;28;20094;-80
2021/05/02 01:09:41;;;;;;;22.33;14.65;;;6.90;87.70;;;;;;4994536;28;20028;-81
2021/05/02 01:12:11;;;;;;;18.17;12.57;;;7.00;87.40;;;;;;4995082;28;20109;-81
2021/05/02 01:14:40;;;;;;;;;;;7.00;87.20;;;;;;4993838;28;20018;-81
2021/05/02 01:17:07;;;;;;;22.60;12.80;;;7.00;87.40;;;;;;4993596;28;19902;-82
2021/05/02 01:19:33;;;;;;;17.35;12.30;;;7.00;86.70;;;;;;4993541;28;20061;-81
2021/05/02 01:22:00;;;;;;;19.45;13.25;;;7.10;86.70;;;;;;4993621;28;20057;-81
2021/05/02 01:24:27;;;;;;;17.63;12.43;;;7.00;86.80;;;;;;4993186;28;20023;-82
2021/05/02 01:26:52;;;;;;;20.77;12.98;;;7.00;86.60;;;;;;4993571;28;20014;-82
2021/05/02 01:29:18;;;;;;;15.45;10.98;;;7.10;86.70;;;;;;4993353;28;20038;-82
2021/05/02 01:31:44;;;;;;;15.98;11.48;;;7.10;87.30;;;;;;4992625;28;20022;-82
2021/05/02 01:34:10;;;;;;;16.75;11.10;;;7.10;86.70;;;;;;4993422;28;20014;-82
2021/05/02 01:36:36;;;;;;;19.88;11.38;;;7.10;86.20;;;;;;4993091;28;20029;-82
2021/05/02 01:39:08;;;;;;;21.00;10.85;;;7.10;86.50;;;;;;4993035;28;20026;-82
2021/05/02 01:41:34;;;;;;;25.42;11.43;;;7.10;86.30;;;;;;4994215;28;20042;-82
2021/05/02 01:43:59;;;;;;;20.17;10.75;;;7.20;86.40;;;;;;4995608;28;20021;-82
2021/05/02 01:46:38;;;;;;;13.70;9.43;;;7.20;86.20;;;;;;5002932;28;20054;-81
2021/05/02 01:49:09;;;;;;;17.02;9.18;;;7.20;85.00;;;;;;5016290;28;20031;-78
2021/05/02 01:51:37;;;;;;;14.80;9.98;;;7.20;84.50;;;;;;5037194;28;20014;-81
2021/05/02 01:54:04;;;;;;;17.45;9.90;;;7.10;84.70;;;;;;5032264;28;20387;-81
2021/05/02 01:56:32;;;;;;;13.38;8.48;;;7.10;84.50;;;;;;5025492;28;20419;-81
2021/05/02 01:59:03;;;;;;;15.15;8.15;;;7.10;84.10;;;;;;4992698;28;20017;-82
2021/05/02 02:01:29;;;;;;;11.23;7.40;;;7.10;84.30;;;;;;5025164;28;20033;-82
2021/05/02 02:03:57;;;;;;;14.43;6.78;;;7.00;83.80;;;;;;4993921;28;20455;-82
2021/05/02 02:06:28;;;;;;;15.68;7.15;;;7.00;83.10;;;;;;5025357;28;20022;-82
2021/05/02 02:08:55;;;;;;;13.82;7.30;;;6.90;83.00;;;;;;4994126;28;20117;-82
2021/05/02 02:11:21;;;;;;;17.00;6.82;;;6.80;83.20;;;;;;5025336;28;20018;-82
2021/05/02 02:13:48;;;;;;;11.65;7.15;;;6.70;83.10;;;;;;4993337;28;20022;-81
2021/05/02 02:16:15;;;;;;;10.98;6.55;;;6.70;84.20;;;;;;5025328;28;20110;-81
2021/05/02 02:18:42;;;;;;;10.23;6.90;;;6.60;83.70;;;;;;4991909;28;20026;-81
2021/05/02 02:21:09;;;;;;;10.90;6.20;;;6.60;83.70;;;;;;5024956;28;20108;-80
2021/05/02 02:23:39;;;;;;;15.82;6.70;;;6.50;84.10;;;;;;5024725;28;20026;-81
2021/05/02 02:26:19;;;;;;;16.88;6.60;;;6.40;84.10;;;;;;4992438;28;20015;-81
2021/05/02 02:28:46;;;;;;;;;;;6.40;84.40;;;;;;4992413;28;20542;-81
2021/05/02 02:31:13;;;;;;;12.48;7.13;;;6.40;84.70;;;;;;4993570;28;19902;-81
2021/05/02 02:33:41;;;;;;;11.35;6.00;;;6.30;84.80;;;;;;4993284;28;20026;-80
2021/05/02 02:36:07;;;;;;;16.08;6.80;;;6.20;85.00;;;;;;5025168;28;20029;-81
2021/05/02 02:38:35;;;;;;;11.63;7.25;;;6.20;85.20;;;;;;5024745;28;20100;-81
2021/05/02 02:41:02;;;;;;;14.77;8.07;;;6.10;85.40;;;;;;4991886;28;20095;-83
2021/05/02 02:43:33;;;;;;;16.33;8.07;;;6.10;85.90;;;;;;4991255;28;20459;-82
2021/05/02 02:46:03;;;;;;;13.60;8.13;;;6.10;86.20;;;;;;5024905;28;20022;-82
2021/05/02 02:48:30;;;;;;;19.17;8.52;;;6.10;86.60;;;;;;5024732;28;20022;-82
2021/05/02 02:51:00;;;;;;;16.83;8.13;;;6.10;86.80;;;;;;5024388;28;20103;-81
2021/05/02 02:53:27;;;;;;;;;;;6.20;87.00;;;;;;5025179;28;20022;-82
2021/05/02 02:56:07;;;;;;;15.50;7.88;;;6.20;86.90;;;;;;4993458;28;19992;-81
2021/05/02 02:58:45;;;;;;;13.55;8.73;;;6.30;87.30;;;;;;5024794;28;20025;-82
2021/05/02 03:01:13;;;;;;;15.77;9.32;;;6.30;87.30;;;;;;4992123;28;20018;-83
2021/05/02 03:03:42;;;;;;;17.65;9.20;;;6.30;87.60;;;;;;5024505;28;20367;-82
2021/05/02 03:06:09;;;;;;;14.75;8.50;;;6.30;87.50;;;;;;5024544;28;20031;-83
2021/05/02 03:08:38;;;;;;;16.98;9.18;;;6.30;87.80;;;;;;5008544;28;20018;-83
2021/05/02 03:11:04;;;;;;;18.45;9.50;;;6.30;87.70;;;;;;4993150;28;20428;-82
2021/05/02 03:13:30;;;;;;;14.68;8.43;;;6.30;87.40;;;;;;5024375;28;20021;-81
2021/05/02 03:15:59;;;;;;;17.65;9.73;;;6.30;87.40;;;;;;5024595;28;20022;-81
2021/05/02 03:18:29;;;;;;;16.67;8.70;;;6.40;87.60;;;;;;5024466;28;20110;-81
2021/05/02 03:21:05;;;;;;;22.27;10.63;;;6.30;87.30;;;;;;5024901;28;20483;-81
2021/05/02 03:23:37;;;;;;;19.95;9.40;;;6.30;87.50;;;;;;4991426;28;20054;-81
2021/05/02 03:26:05;;;;;;;15.82;8.57;;;6.30;87.60;;;;;;5024505;28;20031;-81
2021/05/02 03:28:45;;;;;;;12.98;8.38;;;6.40;87.50;;;;;;5024416;28;20436;-81
2021/05/02 03:31:17;;;;;;;18.08;8.45;;;6.30;87.60;;;;;;5024880;28;20030;-80
2021/05/02 03:34:02;;;;;;;14.57;8.05;;;6.30;87.70;;;;;;4993071;28;20093;-81
2021/05/02 03:36:45;;;;;;;16.55;8.75;;;6.30;87.30;;;;;;5024518;28;20046;-79
2021/05/02 03:39:11;;;;;;;12.63;8.60;;;6.40;87.50;;;;;;5024730;28;20097;-81
2021/05/02 03:41:37;;;;;;;20.70;8.73;;;6.30;87.50;;;;;;5026811;28;20126;-79
2021/05/02 03:44:03;;;;;;;16.30;7.65;;;6.30;87.60;;;;;;5030442;28;20046;-79
2021/05/02 03:46:30;;;;;;;16.95;8.43;;;6.30;87.60;;;;;;4998262;28;20085;-80
2021/05/02 03:49:04;;;;;;;16.02;7.60;;;6.30;87.60;;;;;;5030430;28;20022;-80
2021/05/02 03:51:31;;;;;;;13.48;7.57;;;6.30;87.30;;;;;;4994834;28;20018;-81
2021/05/02 03:53:58;;;;;;;14.13;7.20;;;6.30;87.10;;;;;;5024136;28;20026;-81
2021/05/02 03:56:43;;;;;;;13.27;6.47;;;6.30;87.00;;;;;;5027579;28;20010;-80
2021/05/02 03:59:17;;;;;;;19.63;7.32;;;6.30;87.90;;;;;;5027733;28;20037;-81
2021/05/02 04:01:47;;;;;;;15.38;8.15;;;6.20;87.20;;;;;;5027618;28;20371;-81
2021/05/02 04:04:14;;;;;;;16.05;7.15;;;6.10;87.40;;;;;;5027471;28;20029;-81
2021/05/02 04:06:40;;;;;;;13.65;6.80;;;6.00;87.50;;;;;;5027153;28;20022;-80
2021/05/02 04:09:11;;;;;;;12.15;6.97;;;6.00;87.70;;;;;;5027344;28;20471;-80
2021/05/02 04:11:38;;;;;;;10.75;6.00;;;5.90;88.00;;;;;;5027262;28;20568;-81
2021/05/02 04:14:09;;;;;;;13.30;6.88;;;5.90;88.00;;;;;;5027268;28;20014;-80
2021/05/02 04:16:35;;;;;;;13.60;6.50;;;5.90;88.10;;;;;;5027551;28;20081;-80
2021/05/02 04:19:01;;;;;;;13.10;6.25;;;5.90;88.90;;;;;;4994526;28;20022;-80
2021/05/02 04:21:27;;;;;;;14.00;6.50;;;5.80;88.20;;;;;;5027260;28;20064;-80
2021/05/02 04:23:53;;;;;;;16.05;6.72;;;5.80;88.30;;;;;;5027254;28;20026;-80
2021/05/02 04:26:19;;;;;;;15.50;7.07;;;5.70;88.30;;;;;;5027335;28;20022;-80
2021/05/02 04:28:45;;;;;;;18.13;6.50;;;5.80;88.40;;;;;;5026776;28;20026;-79
2021/05/02 04:31:11;;;;;;;15.23;7.70;;;5.80;88.50;;;;;;4995491;28;20066;-79
2021/05/02 04:33:36;;;;;;;22.63;7.68;;;5.70;88.40;;;;;;5026745;28;20010;-79
2021/05/02 04:36:02;;;;;;;14.80;6.10;;;5.70;88.40;;;;;;5027223;28;20029;-79
2021/05/02 04:38:28;;;;;;;12.60;5.78;;;5.70;88.50;;;;;;5026945;28;20388;-79
2021/05/02 04:40:53;;;;;;;13.18;6.60;;;5.70;88.60;;;;;;5026421;28;20092;-79
2021/05/02 04:43:19;;;;;;;12.70;5.95;;;5.70;88.60;;;;;;5027056;28;20015;-80
2021/05/02 04:45:45;;;;;;;12.82;6.25;;;5.70;88.70;;;;;;5010205;28;20022;-79
2021/05/02 04:48:11;;;;;;;11.57;5.75;;;5.70;88.50;;;;;;5026668;28;20022;-79
2021/05/02 04:50:36;;;;;;;12.00;5.60;;;5.70;88.40;;;;;;5026721;28;20038;-80
2021/05/02 04:53:02;;;;;;;12.05;5.88;;;5.70;88.40;;;;;;5026833;28;20019;-80
2021/05/02 04:55:28;;;;;;;16.73;6.22;;;5.60;88.30;;;;;;5026695;28;20026;-79
2021/05/02 04:57:54;;;;;;;10.48;5.15;;;5.60;89.00;;;;;;5026421;28;20125;-79
2021/05/02 05:00:21;;;;;;;12.32;6.03;;;5.60;88.30;;;;;;5026755;28;20464;-80
2021/05/02 05:02:47;;;;;;;12.23;5.68;;;5.60;88.30;;;;;;4994746;28;20448;-77
2021/05/02 05:05:13;;;;;;;11.27;5.47;;;5.60;88.20;;;;;;5026497;28;20022;-79
2021/05/02 05:07:39;;;;;;;14.95;5.68;;;5.70;88.10;;;;;;5025420;28;20027;-80
2021/05/02 05:10:05;;;;;;;16.75;6.18;;;5.70;88.10;;;;;;5026414;28;20093;-79
2021/05/02 05:12:30;;;;;;;12.82;5.70;;;5.80;87.80;;;;;;5026696;28;20427;-79
2021/05/02 05:14:56;;;;;;;9.70;5.45;;;5.90;87.60;;;;;;5026333;28;20050;-78
2021/05/02 05:17:21;;;;;;;11.75;5.18;;;5.90;87.40;;;;;;5026283;28;20018;-78
2021/05/02 05:19:47;;;;;;;11.20;6.45;;;5.90;87.20;;;;;;4993512;28;20041;-80
2021/05/02 05:22:12;;;;;;;10.77;5.07;;;6.00;87.10;;;;;;5026391;28;20098;-79
2021/05/02 05:24:38;;;;;;;11.38;5.28;;;6.00;87.10;;;;;;5025841;28;20491;-79
2021/05/02 05:27:04;;;;;;;9.45;5.80;;;6.00;86.80;;;;;;5025882;28;20018;-79
2021/05/02 05:29:32;;;;;;;9.82;4.57;;;6.00;87.00;;;;;;5025927;28;20033;-80
2021/05/02 05:31:57;;;;;;;12.75;5.57;;;6.00;87.10;;;;;;5025915;28;20423;-79
2021/05/02 05:34:23;;;;;;;14.90;6.10;;;6.10;87.00;;;;;;5026275;28;20073;-79
2021/05/02 05:36:49;;;;;;;13.02;5.57;;;6.20;86.60;;;;;;5026599;28;20046;-77
2021/05/02 05:39:14;;;;;;;11.00;5.03;;;6.30;86.20;;;;;;5028176;28;20375;-79
2021/05/02 05:41:40;;;;;;;11.80;5.63;;;6.40;86.20;;;;;;5027471;28;20469;-79
2021/05/02 05:44:06;;;;;;;12.18;5.35;;;6.50;85.70;;;;;;5029032;28;20022;-79
2021/05/02 05:46:31;;;;;;;17.50;5.68;;;6.60;85.30;;;;;;5026768;28;20053;-79
2021/05/02 05:48:57;;;;;;;13.65;4.95;;;6.70;84.90;;;;;;5027014;28;20085;-79
2021/05/02 05:51:23;;;;;;;16.30;4.78;;;6.70;85.10;;;;;;5029288;28;20023;-79
2021/05/02 05:53:48;;;;;;;14.40;4.97;;;6.80;85.20;;;;;;5026151;28;20435;-81
2021/05/02 05:56:14;;;;;;;15.95;5.05;;;6.90;84.40;;;;;;5026555;28;20029;-79
2021/05/02 05:58:39;;;;;;;8.93;4.25;;;7.10;84.30;;;;;;5026161;28;20046;-78
2021/05/02 06:01:05;;;;;;;10.55;4.03;;;7.20;84.00;;;;;;5025933;28;20018;-80
2021/05/02 06:03:31;;;;;;;12.93;4.95;;;7.30;83.50;;;;;;4994757;28;20448;-79
2021/05/02 06:05:56;;;;;;;15.27;5.20;;;7.40;82.90;;;;;;4992637;28;20030;-79
2021/05/02 06:08:25;;;;;;;12.25;4.20;;;7.50;82.80;;;;;;5025618;28;20554;-80
2021/05/02 06:10:51;;;;;;;9.82;4.28;;;7.60;82.80;;;;;;5025164;28;20109;-79
2021/05/02 06:13:18;;;;;;;10.27;3.92;;;7.80;82.30;;;;;;5025547;28;20495;-80
2021/05/02 06:15:44;;;;;;;13.65;4.60;;;7.90;81.60;;;;;;5025229;28;20028;-79
2021/05/02 06:18:10;;;;;;;8.50;3.53;;;8.00;80.10;;;;;;5025027;28;20352;-80
2021/05/02 06:20:35;;;;;;;12.07;3.45;;;8.20;79.70;;;;;;5025151;28;20635;-80
2021/05/02 06:23:01;;;;;;;9.15;3.08;;;8.20;78.80;;;;;;5024710;28;20026;-79
2021/05/02 06:25:27;;;;;;;9.68;3.75;;;8.30;77.90;;;;;;5025653;28;20026;-82
2021/05/02 06:27:52;;;;;;;10.25;3.40;;;8.30;77.80;;;;;;5024882;28;20018;-81
2021/05/02 06:30:22;;;;;;;10.98;3.60;;;8.30;77.80;;;;;;5025172;28;20085;-81
2021/05/02 06:32:47;;;;;;;9.60;3.70;;;8.40;77.10;;;;;;5024605;28;20018;-81
2021/05/02 06:35:13;;;;;;;7.13;3.08;;;8.50;76.90;;;;;;4992055;28;20070;-81
2021/05/02 06:37:39;;;;;;;7.72;3.13;;;8.60;76.20;;;;;;5024694;28;20446;-81
2021/05/02 06:40:07;;;;;;;11.20;3.25;;;8.70;76.60;;;;;;5024766;28;20046;-82
2021/05/02 06:42:37;;;;;;;12.15;4.43;;;8.80;75.40;;;;;;5024727;28;20412;-80
2021/05/02 06:45:03;;;;;;;;;;;9.00;74.80;;;;;;5024936;28;20538;-81
2021/05/02 06:47:29;;;;;;;9.32;2.60;;;9.10;73.00;;;;;;4999990;28;20374;-81
2021/05/02 06:49:54;;;;;;;8.43;2.60;;;9.10;72.20;;;;;;4998942;28;20038;-81
2021/05/02 06:52:20;;;;;;;7.57;2.88;;;9.20;72.20;;;;;;4999025;28;20014;-81
2021/05/02 06:54:46;;;;;;;7.32;3.22;;;9.20;71.80;;;;;;4999091;28;20018;-81
2021/05/02 06:57:15;;;;;;;9.88;2.97;;;9.40;71.10;;;;;;5002582;28;20014;-80
2021/05/02 06:59:42;;;;;;;8.55;2.22;;;9.50;70.90;;;;;;4999205;28;20358;-81
2021/05/02 07:02:08;;;;;;;5.75;2.22;;;9.60;69.20;;;;;;5000626;28;20018;-81
2021/05/02 07:04:34;;;;;;;4.75;2.60;;;9.70;69.40;;;;;;5002403;28;20030;-79
2021/05/02 07:07:02;;;;;;;6.55;2.55;;;9.90;70.30;;;;;;5002005;28;20057;-79
2021/05/02 07:09:31;;;;;;;9.80;2.33;;;10.00;67.80;;;;;;4997293;28;20383;-78
2021/05/02 07:11:57;;;;;;;7.35;2.83;;;10.10;67.70;;;;;;4992075;28;20026;-82
2021/05/02 07:14:23;;;;;;;9.95;2.33;;;10.20;68.60;;;;;;4992578;28;20463;-84
2021/05/02 07:16:49;;;;;;;6.70;2.63;;;10.20;67.20;;;;;;4991380;28;20113;-82
2021/05/02 07:19:14;;;;;;;8.00;2.88;;;10.20;66.80;;;;;;4992025;28;20460;-82
2021/05/02 07:21:41;;;;;;;6.65;2.65;;;10.10;64.70;;;;;;4992751;28;20014;-81
2021/05/02 07:24:08;;;;;;;8.85;2.08;;;10.20;64.90;;;;;;4991687;28;20042;-80
2021/05/02 07:26:34;;;;;;;8.93;2.00;;;10.20;65.90;;;;;;4991848;28;20061;-82
2021/05/02 07:29:00;;;;;;;5.57;2.05;;;10.40;65.00;;;;;;4975599;28;20038;-81
2021/05/02 07:31:25;;;;;;;7.78;1.73;;;10.40;63.10;;;;;;4997781;28;20355;-81
2021/05/02 07:33:54;;;;;;;5.38;1.40;;;10.30;63.90;;;;;;5000911;28;20019;-81
2021/05/02 07:36:20;;;;;;;9.93;1.85;;;10.30;66.20;;;;;;5005995;28;20057;-80
2021/05/02 07:38:46;;;;;;;8.85;1.60;;;10.50;66.80;;;;;;5008550;28;20021;-79
2021/05/02 07:41:12;;;;;;;5.50;2.00;;;10.70;64.10;;;;;;5011646;28;20042;-81
2021/05/02 07:43:40;;;;;;;6.05;1.73;;;11.00;68.90;;;;;;5005771;28;20018;-83
2021/05/02 07:46:06;;;;;;;3.33;1.00;;;11.40;65.70;;;;;;4996134;28;20025;-83
2021/05/02 07:48:34;;;;;;;4.40;1.40;;;11.80;69.90;;;;;;4995579;28;20048;-82
2021/05/02 07:51:00;;;;;;;3.47;1.10;;;12.10;66.40;;;;;;4995069;28;20031;-83
2021/05/02 07:53:26;;;;;;;6.80;1.58;;;12.20;66.00;;;;;;4995499;28;20014;-82
2021/05/02 07:55:51;;;;;;;3.42;0.82;;;12.50;64.80;;;;;;4995490;28;20028;-85
2021/05/02 07:58:17;;;;;;;3.70;1.58;;;12.60;57.10;;;;;;4995862;28;20056;-86
2021/05/02 08:00:43;;;;;;;4.25;1.17;;;12.70;57.50;;;;;;4995332;28;20102;-85
2021/05/02 08:03:09;;;;;;;3.38;1.10;;;12.80;57.10;;;;;;4995691;28;20045;-84
2021/05/02 08:05:34;;;;;;;5.05;1.70;;;13.10;55.90;;;;;;4995507;28;20034;-85
2021/05/02 08:08:00;;;;;;;5.13;1.10;;;13.10;55.20;;;;;;4995026;28;20018;-86
2021/05/02 08:10:29;;;;;;;2.78;1.00;;;13.20;55.80;;;;;;4995120;28;20085;-85
2021/05/02 08:12:56;;;;;;;2.35;1.00;;;13.30;63.50;;;;;;4994716;28;20037;-84
2021/05/02 08:15:22;;;;;;;4.07;1.50;;;13.30;55.30;;;;;;4995466;28;20120;-84
2021/05/02 08:17:48;;;;;;;3.92;1.40;;;13.40;59.40;;;;;;4995197;28;20467;-85
2021/05/02 08:20:14;;;;;;;6.63;1.30;;;13.50;56.10;;;;;;4995422;28;20032;-85
2021/05/02 08:22:40;;;;;;;7.00;1.80;;;13.40;55.10;;;;;;4995136;28;20018;-86
2021/05/02 08:25:07;;;;;;;3.28;1.55;;;13.00;52.60;;;;;;4995543;28;20064;-85
2021/05/02 08:27:33;;;;;;;5.60;1.48;;;12.70;53.80;;;;;;4995449;28;20033;-85
2021/05/02 08:29:59;;;;;;;6.13;1.60;;;12.50;55.40;;;;;;4994987;28;20672;-84
2021/05/02 08:32:25;;;;;;;2.70;1.23;;;12.60;55.40;;;;;;4994908;28;20015;-85
2021/05/02 08:34:53;;;;;;;4.32;1.50;;;12.70;55.90;;;;;;5027841;28;20018;-82
2021/05/02 08:37:20;;;;;;;3.35;0.93;;;12.90;56.30;;;;;;5027876;28;20023;-85
2021/05/02 08:39:46;;;;;;;3.92;1.10;;;13.20;54.90;;;;;;5027725;28;20022;-81
2021/05/02 08:42:11;;;;;;;4.78;1.27;;;13.30;53.10;;;;;;5025957;28;20019;-84
2021/05/02 08:44:38;;;;;;;3.10;1.13;;;13.40;59.30;;;;;;4995720;28;20022;-84
2021/05/02 08:47:05;;;;;;;2.85;0.93;;;13.30;50.50;;;;;;5027160;28;20019;-83
2021/05/02 08:49:33;;;;;;;4.35;1.30;;;13.20;55.70;;;;;;5027215;28;20088;-84
2021/05/02 08:51:59;;;;;;;3.08;1.25;;;12.90;51.90;;;;;;4995740;28;20034;-84
2021/05/02 08:54:25;;;;;;;4.05;1.25;;;12.90;48.00;;;;;;5027151;28;20084;-84
2021/05/02 08:56:57;;;;;;;3.75;1.10;;;12.80;50.80;;;;;;5026592;28;20116;-79
2021/05/02 08:59:22;;;;;;;4.55;1.20;;;12.80;53.60;;;;;;5026502;28;20116;-77
2021/05/02 09:01:49;;;;;;;4.80;1.27;;;12.90;51.30;;;;;;5026209;28;20110;-76
2021/05/02 09:04:15;;;;;;;5.10;1.27;;;13.30;50.70;;;;;;4994976;28;20164;-86
2021/05/02 09:06:41;;;;;;;8.63;1.25;;;13.60;50.70;;;;;;5027670;28;20501;-86
2021/05/02 09:09:10;;;;;;;3.45;0.93;;;13.80;49.60;;;;;;5027567;28;20451;-80
2021/05/02 09:11:40;;;;;;;4.90;1.35;;;13.80;51.60;;;;;;5027625;28;20072;-82
2021/05/02 09:14:12;;;;;;;4.78;1.27;;;13.50;47.30;;;;;;4998683;28;20037;-86
2021/05/02 09:16:51;;;;;;;2.50;1.00;;;13.10;50.20;;;;;;4997016;28;20072;-88
2021/05/02 09:19:18;;;;;;;2.33;0.90;;;13.20;49.20;;;;;;4995865;28;20045;-85
2021/05/02 09:21:44;;;;;;;2.92;0.95;;;13.50;55.60;;;;;;5026470;28;20085;-84
2021/05/02 09:24:40;;;;;;;2.90;0.93;;;13.70;55.90;;;;;;5026200;28;20023;-81
2021/05/02 09:27:16;;;;;;;3.35;1.25;;;13.50;49.30;;;;;;5001997;28;20038;-79
2021/05/02 09:29:46;;;;;;;4.05;1.38;;;13.40;51.50;;;;;;5027685;28;20105;-84
2021/05/02 09:32:14;;;;;;;3.47;1.20;;;13.50;49.20;;;;;;5004041;28;20018;-81
2021/05/02 09:34:53;;;;;;;3.22;1.10;;;13.60;53.60;;;;;;5043655;28;20038;-82
2021/05/02 09:37:22;;;;;;;5.65;0.90;;;13.70;47.40;;;;;;5040105;28;20060;-81
2021/05/02 09:39:55;;;;;;;4.80;1.27;;;13.70;50.00;;;;;;5027445;28;20092;-78
2021/05/02 09:42:30;;;;;;;3.53;1.75;;;13.60;55.00;;;;;;5026916;28;20022;-87
2021/05/02 09:44:57;;;;;;;5.65;1.00;;;13.70;48.40;;;;;;5030786;28;20014;-89
2021/05/02 09:47:29;;;;;;;4.38;1.08;;;13.90;48.10;;;;;;5027066;28;20020;-81
2021/05/02 09:50:23;;;;;;;2.78;1.55;;;14.00;46.60;;;;;;5025487;28;20026;-82
2021/05/02 09:52:55;;;;;;;5.32;1.00;;;13.70;54.10;;;;;;4994033;28;20029;-81
2021/05/02 09:55:37;;;;;;;4.82;0.85;;;13.50;54.80;;;;;;4993792;28;20022;-78
2021/05/02 09:58:11;;;;;;;3.35;0.93;;;13.30;56.70;;;;;;5025709;28;20029;-78
2021/05/02 10:00:39;;;;;;;2.78;0.90;;;13.20;54.10;;;;;;5026778;28;20022;-84
2021/05/02 10:03:09;;;;;;;5.03;1.00;;;13.00;53.60;;;;;;5027338;28;20014;-88
2021/05/02 10:05:36;;;;;;;;;;;12.70;52.70;;;;;;5027680;28;20021;-87
2021/05/02 10:08:03;;;;;;;3.47;1.35;;;12.50;53.80;;;;;;4994357;28;19936;-87
2021/05/02 10:10:29;;;;;;;2.95;0.90;;;12.40;54.10;;;;;;5026867;28;20033;-88
2021/05/02 10:12:55;;;;;;;3.25;1.35;;;12.40;56.40;;;;;;5027916;28;20025;-86
2021/05/02 10:15:23;;;;;;;3.95;1.00;;;12.40;53.80;;;;;;5028932;28;20037;-85
2021/05/02 10:17:52;;;;;;;2.20;0.90;;;12.30;51.50;;;;;;5010852;28;20077;-85
2021/05/02 10:20:21;;;;;;;8.45;1.25;;;12.30;53.30;;;;;;5027013;28;20037;-89
2021/05/02 10:22:48;;;;;;;3.03;1.02;;;12.20;52.40;;;;;;5026835;28;20085;-86
2021/05/02 10:25:15;;;;;;;4.50;1.17;;;12.40;52.30;;;;;;5027078;28;20028;-88
2021/05/02 10:27:51;;;;;;;3.78;1.00;;;12.70;55.00;;;;;;5026141;28;20014;-90
2021/05/02 10:30:31;;;;;;;2.60;0.90;;;13.20;51.80;;;;;;5027074;28;20053;-86
2021/05/02 10:33:09;;;;;;;4.20;0.98;;;13.60;58.40;;;;;;4993451;28;20082;-87
2021/05/02 10:35:43;;;;;;;2.95;1.00;;;14.00;53.90;;;;;;4994676;28;20014;-88
2021/05/02 10:38:10;;;;;;;2.60;0.75;;;14.40;52.50;;;;;;4994838;28;20041;-89
2021/05/02 10:40:37;;;;;;;2.63;0.80;;;14.80;54.50;;;;;;4995794;28;20042;-89
2021/05/02 10:43:07;;;;;;;4.68;0.93;;;15.00;56.00;;;;;;4996678;28;20060;-88
2021/05/02 10:45:33;;;;;;;2.60;0.90;;;15.20;53.30;;;;;;4978384;28;20080;-86
2021/05/02 10:48:14;;;;;;;4.00;1.30;;;15.40;55.10;;;;;;4994588;28;20030;-86
2021/05/02 10:50:45;;;;;;;6.57;1.23;;;15.60;46.40;;;;;;4994546;28;20056;-82
2021/05/02 10:53:16;;;;;;;3.47;1.02;;;15.60;53.50;;;;;;4995786;28;20022;-84
2021/05/02 10:55:53;;;;;;;1.90;0.60;;;15.80;53.70;;;;;;4992977;28;20022;-86
2021/05/02 10:58:39;;;;;;;2.25;0.80;;;16.00;51.70;;;;;;4994917;28;20554;-87
2021/05/02 11:01:08;;;;;;;3.95;1.40;;;16.30;53.50;;;;;;4993394;28;20026;-85
2021/05/02 11:03:37;;;;;;;6.23;0.80;;;16.40;47.10;;;;;;4993661;28;20455;-85
2021/05/02 11:06:08;;;;;;;4.60;1.00;;;16.40;48.40;;;;;;4994102;28;20257;-85
2021/05/02 11:08:46;;;;;;;1.52;0.55;;;16.40;39.10;;;;;;4993345;28;20489;-86
2021/05/02 11:11:31;;;;;;;2.42;0.70;;;16.40;46.20;;;;;;4993023;28;20525;-85
2021/05/02 11:14:09;;;;;;;3.05;1.00;;;16.50;42.10;;;;;;4993347;28;20447;-84
2021/05/02 11:16:35;;;;;;;2.65;0.85;;;16.40;51.20;;;;;;4992827;28;20019;-84
2021/05/02 11:19:02;;;;;;;2.28;0.75;;;15.90;55.50;;;;;;4992656;28;20053;-85
2021/05/02 11:21:47;;;;;;;3.05;0.90;;;15.40;50.20;;;;;;4992669;28;20010;-84
2021/05/02 11:24:16;;;;;;;11.68;1.52;;;15.00;49.10;;;;;;4993689;28;20053;-84
2021/05/02 11:27:15;;;;;;;2.05;0.80;;;14.80;48.80;;;;;;5001220;28;20018;-82
2021/05/02 11:32:30;;;;;;;3.35;0.80;;;14.40;54.30;;;;;;5015716;28;20022;-80
2021/05/02 11:35:11;;;;;;;2.25;0.98;;;14.30;58.30;;;;;;5026080;28;20014;-85
2021/05/02 11:37:39;;;;;;;;;;;14.50;52.70;;;;;;5019047;28;20022;-82
2021/05/02 11:40:27;;;;;;;3.78;1.15;;;14.30;49.00;;;;;;5017374;28;19980;-86
2021/05/02 11:42:58;;;;;;;3.33;1.15;;;14.20;48.50;;;;;;5009963;28;20033;-84
2021/05/02 11:45:25;;;;;;;13.98;1.70;;;14.00;48.10;;;;;;5002886;28;20026;-83
2021/05/02 11:47:52;;;;;;;4.85;0.98;;;14.00;50.40;;;;;;4995301;28;20018;-84
2021/05/02 11:50:18;;;;;;;2.35;0.70;;;14.00;55.60;;;;;;4992146;28;20504;-82
2021/05/02 11:52:55;;;;;;;2.90;1.00;;;14.00;56.00;;;;;;4992043;28;20018;-85
2021/05/02 11:55:33;;;;;;;3.35;0.90;;;14.20;60.80;;;;;;4992273;28;20033;-84
2021/05/02 11:58:08;;;;;;;3.97;1.80;;;14.00;54.80;;;;;;4992051;28;20023;-82
2021/05/02 12:00:41;;;;;;;3.97;1.40;;;13.90;51.60;;;;;;4992253;28;20033;-86
2021/05/02 12:03:11;;;;;;;7.38;3.65;;;13.60;47.60;;;;;;4992427;28;20019;-86
2021/05/02 12:05:55;;;;;;;14.18;7.22;;;13.30;54.10;;;;;;4992115;28;20451;-88
2021/05/02 12:08:23;;;;;;;2.72;1.45;;;13.50;52.00;;;;;;4993851;28;20022;-84
2021/05/02 12:11:00;;;;;;;2.83;1.15;;;14.00;48.50;;;;;;4992379;28;20044;-84
2021/05/02 12:13:36;;;;;;;5.15;1.38;;;14.40;46.60;;;;;;4993973;28;20022;-87
2021/05/02 12:16:11;;;;;;;2.45;0.90;;;14.90;45.80;;;;;;4994413;28;20367;-86
2021/05/02 12:19:02;;;;;;;3.70;1.40;;;15.10;44.20;;;;;;4997896;28;20362;-86
2021/05/02 12:21:33;;;;;;;2.92;1.30;;;15.20;45.80;;;;;;4996852;28;20467;-85
2021/05/02 12:24:23;;;;;;;3.97;0.90;;;15.50;54.30;;;;;;4995083;28;20022;-84
2021/05/02 12:26:57;;;;;;;4.07;0.90;;;15.50;47.20;;;;;;4995302;28;20543;-84
2021/05/02 12:29:25;;;;;;;1.83;1.00;;;15.20;45.50;;;;;;4995601;28;20046;-86
2021/05/02 12:31:56;;;;;;;4.30;1.25;;;15.20;47.60;;;;;;4995798;28;20022;-85
2021/05/02 12:34:26;;;;;;;4.93;1.10;;;15.40;45.30;;;;;;4999639;28;20018;-86
2021/05/02 12:36:53;;;;;;;3.13;1.23;;;15.80;50.30;;;;;;4995912;28;20092;-88
2021/05/02 12:39:19;;;;;;;2.55;1.00;;;16.00;40.90;;;;;;4995650;28;20025;-85
2021/05/02 12:41:53;;;;;;;2.55;1.08;;;16.10;43.20;;;;;;5002959;28;20456;-85
2021/05/02 12:44:25;;;;;;;2.80;0.85;;;16.40;42.10;;;;;;4995464;28;20026;-87
2021/05/02 12:46:53;;;;;;;3.53;1.40;;;16.20;50.90;;;;;;4981961;28;20061;-87
2021/05/02 12:49:22;;;;;;;2.25;1.00;;;15.80;45.20;;;;;;5016634;28;20555;-89
2021/05/02 12:51:53;;;;;;;3.78;1.60;;;15.50;50.40;;;;;;5016651;28;20366;-89
2021/05/02 12:54:27;;;;;;;13.90;8.10;;;15.00;49.40;;;;;;5017262;28;20080;-87
2021/05/02 12:57:11;;;;;;;2.00;0.82;;;14.60;47.20;;;;;;5015076;28;20048;-87
2021/05/02 13:02:12;;;;;;;2.20;1.02;;;14.60;59.50;;;;;;5017020;28;20086;-89
2021/05/02 13:05:14;;;;;;;1.38;0.73;;;14.80;52.90;;;;;;5017232;28;20080;-87